Adrian, North Dakota
Current Conditions -  °F | °C
As of 11:56 AM on Friday 19 Dec 2014 (Local Time) from KJMS Reporting Station
Haze Haze  
Wind Chill: 19°   Ceiling: 600
Heat Index: 28°   Visibility: 6mi
Dew Point: 26°   Wind: 9mph
Humidity: 92%   Direction: 190°S
Pressure: 29.96"   Gusts: NA
Location:  46.6526°N, 98.6214°W
Report Text: KJMS 191756Z AUTO 19008KT 6SM BR OVC006 M02/M03 A2996 RMK AO2 SLP168 T10221033 11022 21039 58006
Loading
Personal Weather Stations






























Interactive Weather Map New forecast layout! Learn more

10-Day Weather Forecast

Advertisements
Track Severe Weather on mobile